createdAt,value
2023-01-10T00:02:03.529Z,3.69
2023-01-10T00:07:03.547Z,4.5
2023-01-10T00:12:03.536Z,3.69
2023-01-10T00:17:03.568Z,4.7
2023-01-10T00:22:03.580Z,5.53
2023-01-10T00:27:03.551Z,6.48
2023-01-10T00:32:03.538Z,7.1
2023-01-10T00:37:03.548Z,4.35
2023-01-10T00:42:03.594Z,4.91
2023-01-10T00:47:03.543Z,4.94
2023-01-10T00:52:03.635Z,6.39
2023-01-10T00:57:03.579Z,6.97
2023-01-10T01:02:03.596Z,5.83
2023-01-10T01:07:03.609Z,5.31
2023-01-10T01:12:03.558Z,3.54
2023-01-10T01:17:03.561Z,3.45
2023-01-10T01:22:03.560Z,4.9
2023-01-10T01:27:03.556Z,7.86
2023-01-10T01:32:03.567Z,5.58
2023-01-10T01:37:03.585Z,5.08
2023-01-10T01:42:03.593Z,6.01
2023-01-10T01:47:03.592Z,4.79
2023-01-10T01:52:03.581Z,4.66
2023-01-10T01:57:03.571Z,4.03
2023-01-10T02:02:03.701Z,4.25
2023-01-10T02:07:03.575Z,4.56
2023-01-10T02:12:03.577Z,4.6
2023-01-10T02:17:03.567Z,4.26
2023-01-10T02:22:03.605Z,4.46
2023-01-10T02:27:03.584Z,3.91
2023-01-10T02:32:03.587Z,3.91
2023-01-10T02:37:03.613Z,4.04
2023-01-10T02:42:03.594Z,3.76
2023-01-10T02:47:03.590Z,4.13
2023-01-10T02:52:03.599Z,4.34
2023-01-10T02:57:03.601Z,3.92
2023-01-10T03:02:03.641Z,3.89
2023-01-10T03:07:03.617Z,4.01
2023-01-10T03:12:03.616Z,4.17
2023-01-10T03:17:04.894Z,4.3
2023-01-10T03:22:03.635Z,4.21
2023-01-10T03:27:03.644Z,4.31
2023-01-10T03:32:03.648Z,3.96
2023-01-10T03:37:03.632Z,3.93
2023-01-10T03:42:03.628Z,4.15
2023-01-10T03:47:03.702Z,4.51
2023-01-10T03:52:03.623Z,4.41
2023-01-10T03:57:03.637Z,4.68
2023-01-10T04:02:03.747Z,4.67
2023-01-10T04:07:03.657Z,4.01
2023-01-10T04:12:03.646Z,3.94
2023-01-10T04:17:03.658Z,4.06
2023-01-10T04:22:03.617Z,4.78
2023-01-10T04:27:03.625Z,4.59
2023-01-10T04:32:03.627Z,4.84
2023-01-10T04:37:03.655Z,6
2023-01-10T04:42:03.676Z,5.83
2023-01-10T04:47:03.667Z,6.85
2023-01-10T04:52:03.662Z,8.19
2023-01-10T04:57:03.669Z,10.16
2023-01-10T05:02:03.786Z,12.95
2023-01-10T05:07:03.655Z,16.4
2023-01-10T05:12:03.634Z,21.01
2023-01-10T05:17:03.643Z,22.87
2023-01-10T05:22:03.677Z,23.2
2023-01-10T05:27:03.677Z,24.68
2023-01-10T05:32:03.647Z,22.56
2023-01-10T05:37:03.689Z,23.62
2023-01-10T05:42:03.691Z,25.24
2023-01-10T05:47:03.685Z,26.58
2023-01-10T05:52:03.701Z,25.66
2023-01-10T05:57:03.707Z,26.08
2023-01-10T06:02:03.702Z,22.93
2023-01-10T06:07:03.700Z,17.13
2023-01-10T06:12:03.695Z,16.38
2023-01-10T06:17:03.702Z,18.5
2023-01-10T06:22:03.677Z,18.1
2023-01-10T06:27:03.676Z,17.88
2023-01-10T06:32:03.699Z,20.17
2023-01-10T06:37:03.717Z,20
2023-01-10T06:42:03.710Z,17.75
2023-01-10T06:47:03.705Z,19.63
2023-01-10T06:52:03.702Z,17.89
2023-01-10T06:57:03.704Z,18.72
2023-01-10T07:02:03.795Z,21.84
2023-01-10T07:07:03.697Z,22.91
2023-01-10T07:12:03.723Z,17.04
2023-01-10T07:17:03.726Z,16.36
2023-01-10T07:22:03.719Z,18.93
2023-01-10T07:27:03.711Z,19.47
2023-01-10T07:32:03.698Z,18.15
2023-01-10T07:37:03.731Z,18.6
2023-01-10T07:42:03.706Z,16.91
2023-01-10T07:47:03.737Z,17.69
2023-01-10T07:52:03.756Z,20.63
2023-01-10T07:57:03.742Z,23.35
2023-01-10T08:02:03.746Z,18.86
2023-01-10T08:07:03.717Z,13.9
2023-01-10T08:12:03.727Z,18.88
2023-01-10T08:17:03.723Z,20.47
2023-01-10T08:22:03.761Z,21.87
2023-01-10T08:27:03.723Z,18.54
2023-01-10T08:32:03.754Z,16.58
2023-01-10T08:37:03.710Z,15.83
2023-01-10T08:42:03.729Z,14.32
2023-01-10T08:47:03.727Z,16.14
2023-01-10T08:52:03.781Z,14.49
2023-01-10T08:57:03.754Z,14.24
2023-01-10T09:02:03.853Z,14.19
2023-01-10T09:07:03.772Z,13.57
2023-01-10T09:12:03.737Z,13.57
2023-01-10T09:17:03.778Z,13.15
2023-01-10T09:22:03.765Z,14.74
2023-01-10T09:27:03.784Z,16.6
2023-01-10T09:32:03.766Z,17.25
2023-01-10T09:37:03.750Z,18.37
2023-01-10T09:42:03.781Z,12.67
2023-01-10T09:47:06.178Z,12.31
2023-01-10T09:52:03.803Z,12.69
2023-01-10T09:57:03.741Z,12.23
2023-01-10T10:02:03.792Z,12.22
2023-01-10T10:07:03.794Z,13.18
2023-01-10T10:12:03.787Z,13.06
2023-01-10T10:17:03.812Z,17.11
2023-01-10T10:22:03.757Z,14.37
2023-01-10T10:27:03.792Z,11.58
2023-01-10T10:32:03.768Z,12.6
2023-01-10T10:37:03.812Z,12.29
2023-01-10T10:42:03.819Z,13.06
2023-01-10T10:47:03.803Z,11.63
2023-01-10T10:52:03.783Z,11.2
2023-01-10T10:57:03.816Z,13.98
2023-01-10T11:02:03.867Z,14.22
2023-01-10T11:07:03.782Z,11.11
2023-01-10T11:12:03.810Z,10.85
2023-01-10T11:17:03.793Z,9.38
2023-01-10T11:22:03.831Z,8.29
2023-01-10T11:27:03.786Z,9.35
2023-01-10T11:32:03.867Z,13.34
2023-01-10T11:37:03.803Z,16.52
2023-01-10T11:42:03.796Z,10.76
2023-01-10T11:47:03.832Z,9.08
2023-01-10T11:52:03.850Z,8.93
2023-01-10T11:57:03.837Z,7.93
2023-01-10T12:02:03.880Z,9.09
2023-01-10T12:07:03.829Z,10.53
2023-01-10T12:12:03.824Z,10.28
2023-01-10T12:17:03.913Z,14.54
2023-01-10T12:22:03.860Z,11.88
2023-01-10T12:27:03.865Z,13.27
2023-01-10T12:32:03.831Z,14.78
2023-01-10T12:37:03.838Z,14.64
2023-01-10T12:42:03.832Z,12.34
2023-01-10T12:47:07.657Z,12.43
2023-01-10T12:52:03.885Z,10.27
2023-01-10T12:57:03.855Z,13.7
2023-01-10T13:02:03.937Z,14.76
2023-01-10T13:07:03.823Z,8.99
2023-01-10T13:12:03.822Z,11.02
2023-01-10T13:17:03.844Z,11.57
2023-01-10T13:22:03.832Z,14.27
2023-01-10T13:27:03.867Z,15.02
2023-01-10T13:32:03.884Z,15.37
2023-01-10T13:37:03.888Z,16.48
2023-01-10T13:42:03.837Z,15.19
2023-01-10T13:47:03.903Z,15.14
2023-01-10T13:52:03.858Z,18.57
2023-01-10T13:57:03.888Z,19.53
2023-01-10T14:02:04.042Z,16.41
2023-01-10T14:07:03.858Z,16.53
2023-01-10T14:12:03.844Z,19.45
2023-01-10T14:17:03.841Z,21.74
2023-01-10T14:22:03.894Z,42.56
2023-01-10T14:27:03.868Z,26.23
2023-01-10T14:32:03.894Z,25.8
2023-01-10T14:37:03.862Z,14.65
2023-01-10T14:42:03.887Z,11.27
2023-01-10T14:47:03.866Z,26.84
2023-01-10T14:52:03.916Z,15.3
2023-01-10T14:57:03.865Z,13.71
2023-01-10T15:02:03.904Z,16.12
2023-01-10T15:07:03.914Z,16.95
2023-01-10T15:12:03.910Z,17.38
2023-01-10T15:17:03.878Z,18.33
2023-01-10T15:22:03.866Z,17.94
2023-01-10T15:32:03.883Z,10.83
2023-01-10T15:37:03.889Z,7.38
2023-01-10T15:42:03.891Z,8.4
2023-01-10T15:47:03.930Z,10.62
2023-01-10T15:52:03.945Z,9.4
2023-01-10T15:57:03.900Z,12.81
2023-01-10T16:02:04.086Z,12.36
2023-01-10T16:07:03.935Z,13.4
2023-01-10T16:12:03.932Z,15.72
2023-01-10T16:17:03.936Z,10.81
2023-01-10T16:22:03.908Z,8.91
2023-01-10T16:27:03.907Z,9.54
2023-01-10T16:32:03.918Z,10.89
2023-01-10T16:37:03.928Z,10.05
2023-01-10T16:42:03.956Z,9.99
2023-01-10T16:47:06.705Z,12.42
2023-01-10T16:52:04.019Z,11.41
2023-01-10T17:02:04.084Z,11.97
2023-01-10T17:07:03.948Z,17.5
2023-01-10T17:17:03.948Z,10.03
2023-01-10T17:22:03.933Z,10.1
2023-01-10T17:27:03.919Z,11.16
2023-01-10T17:32:04.004Z,12.38
2023-01-10T17:42:03.945Z,14.86
2023-01-10T17:47:03.969Z,14.67
2023-01-10T17:52:03.941Z,17.65
2023-01-10T17:57:03.975Z,25.69
2023-01-10T18:02:04.128Z,27.63
2023-01-10T18:07:03.963Z,19.06
2023-01-10T18:17:04.055Z,12.93
2023-01-10T18:22:03.965Z,13.72
2023-01-10T18:27:03.949Z,22.38
2023-01-10T18:32:03.980Z,30.37
2023-01-10T18:37:03.984Z,27.09
2023-01-10T18:42:03.986Z,17.18
2023-01-10T18:47:03.948Z,19.97
2023-01-10T18:52:03.999Z,18.35
2023-01-10T18:57:03.962Z,20.14
2023-01-10T19:02:03.984Z,30.24
2023-01-10T19:07:03.946Z,23.58
2023-01-10T19:12:03.963Z,22.82
2023-01-10T19:17:03.969Z,14.52
2023-01-10T19:22:03.972Z,24.7
2023-01-10T19:27:04.012Z,22.7
2023-01-10T19:32:04.035Z,22.74
2023-01-10T19:37:03.997Z,17.29
2023-01-10T19:42:03.999Z,15.16
2023-01-10T19:47:03.982Z,16.73
2023-01-10T19:52:03.993Z,18.83
2023-01-10T19:57:04.026Z,19.89
2023-01-10T20:02:04.011Z,18.17
2023-01-10T20:07:04.041Z,18.31
2023-01-10T20:12:04.016Z,16.95
2023-01-10T20:17:04.024Z,18.2
2023-01-10T20:22:04.009Z,20.48
2023-01-10T20:27:04.026Z,20.4
2023-01-10T20:32:04.005Z,17.68
2023-01-10T20:37:04.056Z,18.71
2023-01-10T20:42:04.014Z,17.89
2023-01-10T20:47:04.048Z,20.07
2023-01-10T20:52:04.013Z,17.62
2023-01-10T20:57:04.023Z,17.3
2023-01-10T21:02:04.057Z,18.37
2023-01-10T21:07:04.073Z,17.96
2023-01-10T21:12:17.524Z,18.72
2023-01-10T21:17:04.030Z,18.98
2023-01-10T21:22:04.016Z,19.39
2023-01-10T21:27:04.018Z,20.44
2023-01-10T21:32:04.035Z,19.86
2023-01-10T21:37:04.026Z,20.27
2023-01-10T21:42:04.023Z,22.13
2023-01-10T21:47:04.042Z,20.53
2023-01-10T21:52:04.063Z,21.79
2023-01-10T21:57:04.045Z,21.51
2023-01-10T22:02:04.114Z,22.19
2023-01-10T22:07:04.013Z,22.91
2023-01-10T22:12:04.021Z,21.26
2023-01-10T22:17:04.027Z,21.84
2023-01-10T22:22:04.024Z,23.62
2023-01-10T22:27:04.068Z,23.04
2023-01-10T22:32:04.073Z,21.37
2023-01-10T22:37:04.072Z,22.23
2023-01-10T22:42:04.078Z,21.2
2023-01-10T22:47:04.070Z,20.07
2023-01-10T22:52:04.064Z,20.57
2023-01-10T22:57:04.040Z,22.09
2023-01-10T23:07:04.055Z,23.4
2023-01-10T23:12:04.090Z,22.79
2023-01-10T23:17:04.039Z,19.23
2023-01-10T23:22:04.044Z,21.8
2023-01-10T23:27:04.052Z,21.85
2023-01-10T23:32:04.120Z,22.71
2023-01-10T23:37:04.094Z,22.08
2023-01-10T23:42:04.055Z,21.31
2023-01-10T23:47:04.092Z,20.92
2023-01-10T23:52:04.121Z,21.17
2023-01-10T23:57:04.056Z,21.78
